createdAt,value
2023-04-09T00:01:32.883Z,9.18
2023-04-09T00:04:02.137Z,6.65
2023-04-09T00:06:31.958Z,7.40
2023-04-09T00:09:01.136Z,4.75
2023-04-09T00:11:30.104Z,6.22
2023-04-09T00:14:01.376Z,5.50
2023-04-09T00:16:30.445Z,6.55
2023-04-09T00:18:59.454Z,5.03
2023-04-09T00:21:28.505Z,7.53
2023-04-09T00:23:57.511Z,4.38
2023-04-09T00:26:26.771Z,4.00
2023-04-09T00:28:56.167Z,5.43
2023-04-09T00:31:26.938Z,5.68
2023-04-09T00:33:55.969Z,4.07
2023-04-09T00:36:27.032Z,5.80
2023-04-09T00:38:56.354Z,4.45
2023-04-09T00:41:25.303Z,3.08
2023-04-09T00:43:56.871Z,3.80
2023-04-09T00:46:27.659Z,4.20
2023-04-09T00:48:57.024Z,6.45
2023-04-09T00:51:26.198Z,5.07
2023-04-09T00:53:55.690Z,3.67
2023-04-09T00:56:25.746Z,4.07
2023-04-09T00:58:55.162Z,4.00
2023-04-09T01:01:24.214Z,4.22
2023-04-09T01:03:55.166Z,5.00
2023-04-09T01:06:29.943Z,4.55
2023-04-09T01:09:09.343Z,3.92
2023-04-09T01:11:44.837Z,3.83
2023-04-09T01:14:22.801Z,3.28
2023-04-09T01:16:58.597Z,5.30
2023-04-09T01:22:11.715Z,4.57
2023-04-09T01:24:53.062Z,4.78
2023-04-09T01:27:25.582Z,4.20
2023-04-09T01:29:56.948Z,3.83
2023-04-09T01:32:27.185Z,3.65
2023-04-09T01:34:57.216Z,4.60
2023-04-09T01:37:27.446Z,5.05
2023-04-09T01:39:56.553Z,7.57
2023-04-09T01:42:26.761Z,4.43
2023-04-09T01:44:57.987Z,5.82
2023-04-09T01:47:28.670Z,4.40
2023-04-09T01:49:57.721Z,4.20
2023-04-09T01:52:27.236Z,6.57
2023-04-09T01:54:56.425Z,7.80
2023-04-09T01:57:25.455Z,8.10
2023-04-09T01:59:55.723Z,4.55
2023-04-09T02:02:35.501Z,5.57
2023-04-09T02:05:08.479Z,7.05
2023-04-09T02:07:42.785Z,5.38
2023-04-09T02:10:13.900Z,5.70
2023-04-09T02:12:49.941Z,4.57
2023-04-09T02:17:50.071Z,5.60
2023-04-09T02:20:19.787Z,3.58
2023-04-09T02:22:49.336Z,3.30
2023-04-09T02:25:18.386Z,4.45
2023-04-09T02:27:47.477Z,3.70
2023-04-09T02:30:16.512Z,3.80
2023-04-09T02:32:45.592Z,4.70
2023-04-09T02:35:16.441Z,4.28
2023-04-09T02:37:45.470Z,4.93
2023-04-09T02:40:14.866Z,4.82
2023-04-09T02:42:43.872Z,5.03
2023-04-09T02:45:13.329Z,4.55
2023-04-09T02:47:42.381Z,5.55
2023-04-09T02:50:11.750Z,6.00
2023-04-09T02:52:42.529Z,4.50
2023-04-09T02:55:11.703Z,6.13
2023-04-09T02:57:40.682Z,4.22
2023-04-09T03:00:11.239Z,4.28
2023-04-09T03:02:40.483Z,3.42
2023-04-09T03:05:10.166Z,5.00
2023-04-09T03:07:39.157Z,5.60
2023-04-09T03:10:10.782Z,6.32
2023-04-09T03:12:39.851Z,4.00
2023-04-09T03:15:09.608Z,5.63
2023-04-09T03:17:38.658Z,4.07
2023-04-09T03:20:09.185Z,4.32
2023-04-09T03:22:38.630Z,4.50
2023-04-09T03:25:10.597Z,7.20
2023-04-09T03:27:39.554Z,4.43
2023-04-09T03:30:09.590Z,6.07
2023-04-09T03:32:38.664Z,5.50
2023-04-09T03:35:08.301Z,6.40
2023-04-09T03:37:37.308Z,4.57
2023-04-09T03:40:09.364Z,5.95
2023-04-09T03:42:38.382Z,6.60
2023-04-09T03:45:08.255Z,5.40
2023-04-09T03:47:37.538Z,4.82
2023-04-09T03:50:07.311Z,5.43
2023-04-09T03:52:36.324Z,5.05
2023-04-09T03:55:05.988Z,6.10
2023-04-09T03:57:36.687Z,5.75
2023-04-09T04:00:06.541Z,5.40
2023-04-09T04:02:35.775Z,4.40
2023-04-09T04:05:05.039Z,5.75
2023-04-09T04:07:34.829Z,5.88
2023-04-09T04:10:06.146Z,6.28
2023-04-09T04:12:36.843Z,5.78
2023-04-09T04:15:06.908Z,5.47
2023-04-09T04:17:36.404Z,4.93
2023-04-09T04:20:05.744Z,6.65
2023-04-09T04:22:36.561Z,6.22
2023-04-09T04:25:06.217Z,7.22
2023-04-09T04:27:36.964Z,8.60
2023-04-09T04:30:07.073Z,10.60
2023-04-09T04:32:36.250Z,7.20
2023-04-09T04:35:05.463Z,7.00
2023-04-09T04:37:34.449Z,7.03
2023-04-09T04:40:04.709Z,7.88
2023-04-09T04:42:33.654Z,6.35
2023-04-09T04:45:04.279Z,9.20
2023-04-09T04:47:34.301Z,8.52
2023-04-09T04:50:03.329Z,6.50
2023-04-09T04:52:32.323Z,5.60
2023-04-09T04:55:01.405Z,10.02
2023-04-09T04:57:30.338Z,7.05
2023-04-09T04:59:59.310Z,6.57
2023-04-09T05:02:30.051Z,6.68
2023-04-09T05:04:59.156Z,7.50
2023-04-09T05:07:28.156Z,8.82
2023-04-09T05:09:57.167Z,8.50
2023-04-09T05:12:26.164Z,9.32
2023-04-09T05:14:55.164Z,6.82
2023-04-09T05:17:25.517Z,11.57
2023-04-09T05:19:58.668Z,7.10
2023-04-09T05:22:28.125Z,6.38
2023-04-09T05:24:57.302Z,8.95
2023-04-09T05:27:26.885Z,7.47
2023-04-09T05:29:55.918Z,7.07
2023-04-09T05:32:24.943Z,8.07
2023-04-09T05:34:55.643Z,8.50
2023-04-09T05:37:24.729Z,6.43
2023-04-09T05:39:53.683Z,6.55
2023-04-09T05:42:23.067Z,10.15
2023-04-09T05:44:52.082Z,7.90
2023-04-09T05:47:22.905Z,6.47
2023-04-09T05:49:52.087Z,7.28
2023-04-09T05:52:23.271Z,9.70
2023-04-09T05:54:55.359Z,6.18
2023-04-09T05:57:24.369Z,6.20
2023-04-09T05:59:53.426Z,7.15
2023-04-09T06:02:22.630Z,6.50
2023-04-09T06:04:52.195Z,7.78
2023-04-09T06:07:23.116Z,7.30
2023-04-09T06:09:52.382Z,7.50
2023-04-09T06:12:21.398Z,7.82
2023-04-09T06:14:50.500Z,5.40
2023-04-09T06:17:19.467Z,6.45
2023-04-09T06:19:48.452Z,8.93
2023-04-09T06:22:17.472Z,7.47
2023-04-09T06:24:48.060Z,5.05
2023-04-09T06:27:19.906Z,7.22
2023-04-09T06:29:48.945Z,5.47
2023-04-09T06:32:17.993Z,6.53
2023-04-09T06:34:47.120Z,6.30
2023-04-09T06:37:16.899Z,5.90
2023-04-09T06:39:58.133Z,6.13
2023-04-09T06:42:30.304Z,4.47
2023-04-09T06:44:59.312Z,6.65
2023-04-09T06:47:28.348Z,5.43
2023-04-09T06:49:57.335Z,5.32
2023-04-09T06:52:26.473Z,5.47
2023-04-09T06:54:57.128Z,5.47
2023-04-09T06:57:27.214Z,5.53
2023-04-09T06:59:56.577Z,5.85
2023-04-09T07:02:25.807Z,7.32
2023-04-09T07:04:55.117Z,7.72
2023-04-09T07:07:25.648Z,8.65
2023-04-09T07:09:56.740Z,5.45
2023-04-09T07:12:28.940Z,5.50
2023-04-09T07:15:00.122Z,5.25
2023-04-09T07:17:29.325Z,5.30
2023-04-09T07:19:58.504Z,7.25
2023-04-09T07:22:30.271Z,7.03
2023-04-09T07:25:01.485Z,7.57
2023-04-09T07:27:30.789Z,8.02
2023-04-09T07:30:00.707Z,6.63
2023-04-09T07:32:29.935Z,6.13
2023-04-09T07:35:00.308Z,7.60
2023-04-09T07:37:29.320Z,7.25
2023-04-09T07:39:59.964Z,8.05
2023-04-09T07:42:29.150Z,9.25
2023-04-09T07:44:58.125Z,7.68
2023-04-09T07:47:27.851Z,9.90
2023-04-09T07:49:57.082Z,9.25
2023-04-09T07:52:26.597Z,8.82
2023-04-09T07:54:55.636Z,8.48
2023-04-09T07:57:26.308Z,9.80
2023-04-09T07:59:56.363Z,10.38
2023-04-09T08:02:25.603Z,8.60
2023-04-09T08:04:54.878Z,8.55
2023-04-09T08:07:23.996Z,8.70
2023-04-09T08:09:53.001Z,10.13
2023-04-09T08:12:22.163Z,8.93
2023-04-09T08:14:53.552Z,11.73
2023-04-09T08:17:23.105Z,9.15
2023-04-09T08:19:52.084Z,9.85
2023-04-09T08:22:21.045Z,10.38
2023-04-09T08:24:53.866Z,9.85
2023-04-09T08:27:23.263Z,9.55
2023-04-09T08:29:53.906Z,11.38
2023-04-09T08:32:23.110Z,12.25
2023-04-09T08:34:52.132Z,12.88
2023-04-09T08:37:21.140Z,9.40
2023-04-09T08:39:50.170Z,8.45
2023-04-09T08:42:20.743Z,12.27
2023-04-09T08:44:49.855Z,10.48
2023-04-09T08:47:21.539Z,9.70
2023-04-09T08:49:51.065Z,13.82
2023-04-09T08:52:22.792Z,11.40
2023-04-09T08:54:52.946Z,13.32
2023-04-09T08:57:22.018Z,13.25
2023-04-09T08:59:51.077Z,11.02
2023-04-09T09:02:21.781Z,10.63
2023-04-09T09:04:51.975Z,10.45
2023-04-09T09:07:21.010Z,12.60
2023-04-09T09:09:54.408Z,11.75
2023-04-09T09:12:39.316Z,12.85
2023-04-09T09:15:27.869Z,13.60
2023-04-09T09:17:59.937Z,11.80
2023-04-09T09:20:29.726Z,13.93
2023-04-09T09:22:58.828Z,11.40
2023-04-09T09:25:27.924Z,13.13
2023-04-09T09:28:07.710Z,15.95
2023-04-09T09:30:38.216Z,14.20
2023-04-09T09:33:10.461Z,14.95
2023-04-09T09:35:52.849Z,13.07
2023-04-09T09:38:22.185Z,14.27
2023-04-09T09:40:51.419Z,13.93
2023-04-09T09:43:20.580Z,16.00
2023-04-09T09:45:49.979Z,14.82
2023-04-09T09:48:20.734Z,15.70
2023-04-09T09:50:52.132Z,15.23
2023-04-09T09:53:28.101Z,14.95
2023-04-09T09:56:00.359Z,14.98
2023-04-09T09:58:37.656Z,15.95
2023-04-09T10:01:11.626Z,18.48
2023-04-09T10:03:44.990Z,16.42
2023-04-09T10:06:15.756Z,16.45
2023-04-09T10:08:45.181Z,18.13
2023-04-09T10:11:14.188Z,15.68
2023-04-09T10:13:50.684Z,15.73
2023-04-09T10:16:20.222Z,17.73
2023-04-09T10:18:51.372Z,17.60
2023-04-09T10:21:29.496Z,17.65
2023-04-09T10:23:59.707Z,16.05
2023-04-09T10:26:28.786Z,15.07
2023-04-09T10:29:09.087Z,17.85
2023-04-09T10:31:56.076Z,15.55
2023-04-09T10:34:29.575Z,14.50
2023-04-09T10:37:00.562Z,15.55
2023-04-09T10:39:32.796Z,13.35
2023-04-09T10:42:05.678Z,12.65
2023-04-09T10:44:36.919Z,13.95
2023-04-09T10:47:07.078Z,12.85
2023-04-09T10:49:40.450Z,12.55
2023-04-09T10:52:12.453Z,12.00
2023-04-09T10:54:49.584Z,10.85
2023-04-09T10:57:21.560Z,12.07
2023-04-09T10:59:51.928Z,12.88
2023-04-09T11:03:02.577Z,10.95
2023-04-09T11:05:35.994Z,12.57
2023-04-09T11:08:10.360Z,13.75
2023-04-09T11:10:40.138Z,11.27
2023-04-09T11:13:13.394Z,13.07
2023-04-09T11:15:42.768Z,14.57
2023-04-09T11:18:15.274Z,14.00
2023-04-09T11:20:47.007Z,11.52
2023-04-09T11:23:17.088Z,11.88
2023-04-09T11:25:51.674Z,14.35
2023-04-09T11:28:21.353Z,11.65
2023-04-09T11:30:52.474Z,10.82
2023-04-09T11:33:21.785Z,13.20
2023-04-09T11:35:52.962Z,10.48
2023-04-09T11:38:21.984Z,10.48
2023-04-09T11:40:52.094Z,11.35
2023-04-09T11:43:21.675Z,10.55
2023-04-09T11:45:51.299Z,11.18
2023-04-09T11:48:22.482Z,12.43
2023-04-09T11:50:53.536Z,10.00
2023-04-09T11:53:23.889Z,10.90
2023-04-09T11:55:54.237Z,14.30
2023-04-09T11:58:25.712Z,10.75
2023-04-09T12:00:59.610Z,11.73
2023-04-09T12:03:31.488Z,9.80
2023-04-09T12:06:04.369Z,11.65
2023-04-09T12:08:35.978Z,10.07
2023-04-09T12:11:12.812Z,12.27
2023-04-09T12:13:45.486Z,10.95
2023-04-09T12:16:15.204Z,11.23
2023-04-09T12:18:44.296Z,11.05
2023-04-09T12:21:15.117Z,15.95
2023-04-09T12:23:44.408Z,9.10
2023-04-09T12:26:13.985Z,12.55
2023-04-09T12:28:42.961Z,11.85
2023-04-09T12:31:12.782Z,10.63
2023-04-09T12:33:42.049Z,10.23
2023-04-09T12:36:11.159Z,12.00
2023-04-09T12:38:41.881Z,10.02
2023-04-09T12:41:10.882Z,10.38
2023-04-09T12:43:40.035Z,10.45
2023-04-09T12:46:09.153Z,10.15
2023-04-09T12:48:38.366Z,12.32
2023-04-09T12:51:07.963Z,13.10
2023-04-09T12:53:37.012Z,11.75
2023-04-09T12:56:08.617Z,12.60
2023-04-09T12:58:38.666Z,13.25
2023-04-09T13:01:08.163Z,13.48
2023-04-09T13:03:37.548Z,16.15
2023-04-09T13:06:07.655Z,18.95
2023-04-09T13:08:36.769Z,27.88
2023-04-09T13:11:07.743Z,28.10
2023-04-09T13:13:36.697Z,32.15
2023-04-09T13:16:05.954Z,34.65
2023-04-09T13:18:34.941Z,37.25
2023-04-09T13:21:04.000Z,35.28
2023-04-09T13:23:33.002Z,33.03
2023-04-09T13:26:02.206Z,33.85
2023-04-09T13:28:32.809Z,34.38
2023-04-09T13:31:01.797Z,33.65
2023-04-09T13:33:30.804Z,30.77
2023-04-09T13:35:59.860Z,31.75
2023-04-09T13:38:28.946Z,31.48
2023-04-09T13:40:58.046Z,36.58
2023-04-09T13:43:29.175Z,36.95
2023-04-09T13:45:59.990Z,38.75
2023-04-09T13:48:28.963Z,36.88
2023-04-09T13:50:58.641Z,33.47
2023-04-09T13:53:27.876Z,37.38
2023-04-09T13:55:57.301Z,34.22
2023-04-09T13:58:26.688Z,33.40
2023-04-09T14:00:55.792Z,29.30
2023-04-09T14:03:26.819Z,30.50
2023-04-09T14:05:55.901Z,28.73
2023-04-09T14:08:25.074Z,28.80
2023-04-09T14:10:54.136Z,31.10
2023-04-09T14:13:23.116Z,32.67
2023-04-09T14:15:52.220Z,31.50
2023-04-09T14:18:21.253Z,30.83
2023-04-09T14:20:52.044Z,32.53
2023-04-09T14:23:21.102Z,34.40
2023-04-09T14:25:50.100Z,32.28
2023-04-09T14:28:19.371Z,32.65
2023-04-09T14:30:48.385Z,34.72
2023-04-09T14:33:17.469Z,32.75
2023-04-09T14:35:46.667Z,35.83
2023-04-09T14:38:18.623Z,33.75
2023-04-09T14:40:47.693Z,32.10
2023-04-09T14:43:16.781Z,30.58
2023-04-09T14:45:45.738Z,29.60
2023-04-09T14:48:14.768Z,33.83
2023-04-09T14:50:43.990Z,35.08
2023-04-09T14:53:13.389Z,31.15
2023-04-09T14:55:44.006Z,30.50
2023-04-09T14:58:13.017Z,30.23
2023-04-09T15:00:42.225Z,29.92
2023-04-09T15:03:11.948Z,30.45
2023-04-09T15:05:41.691Z,30.05
2023-04-09T15:08:10.796Z,30.33
2023-04-09T15:10:40.373Z,29.05
2023-04-09T15:13:11.108Z,24.88
2023-04-09T15:15:44.912Z,25.92
2023-04-09T15:18:13.894Z,27.83
2023-04-09T15:20:44.158Z,28.15
2023-04-09T15:23:13.196Z,27.98
2023-04-09T15:25:42.158Z,28.50
2023-04-09T15:28:12.945Z,29.27
2023-04-09T15:30:42.703Z,26.95
2023-04-09T15:33:11.765Z,26.75
2023-04-09T15:35:40.839Z,27.00
2023-04-09T15:38:09.830Z,24.15
2023-04-09T15:40:40.830Z,27.45
2023-04-09T15:43:11.462Z,26.27
2023-04-09T15:45:40.584Z,27.33
2023-04-09T15:48:09.869Z,24.67
2023-04-09T15:50:39.252Z,24.13
2023-04-09T15:53:08.242Z,26.23
2023-04-09T15:55:37.425Z,26.33
2023-04-09T15:58:06.691Z,27.70
2023-04-09T16:00:37.404Z,24.13
2023-04-09T16:03:06.390Z,25.40
2023-04-09T16:05:35.376Z,27.13
2023-04-09T16:08:04.575Z,24.38
2023-04-09T16:10:33.566Z,24.70
2023-04-09T16:13:03.939Z,25.13
2023-04-09T16:15:33.118Z,22.20
2023-04-09T16:18:03.846Z,23.48
2023-04-09T16:20:33.319Z,27.00
2023-04-09T16:23:02.307Z,25.98
2023-04-09T16:25:31.503Z,25.77
2023-04-09T16:28:00.536Z,22.80
2023-04-09T16:30:31.689Z,27.27
2023-04-09T16:33:03.524Z,21.98
2023-04-09T16:35:32.557Z,23.40
2023-04-09T16:38:01.631Z,24.00
2023-04-09T16:40:30.690Z,23.25
2023-04-09T16:42:59.708Z,22.30
2023-04-09T16:45:28.844Z,24.40
2023-04-09T16:47:57.927Z,22.88
2023-04-09T16:50:28.594Z,21.00
2023-04-09T16:52:57.622Z,20.42
2023-04-09T16:55:26.859Z,20.98
2023-04-09T16:57:57.629Z,18.83
2023-04-09T17:00:26.830Z,19.05
2023-04-09T17:02:57.472Z,17.98
2023-04-09T17:05:28.360Z,18.83
2023-04-09T17:07:58.051Z,18.98
2023-04-09T17:10:27.996Z,20.27
2023-04-09T17:12:57.252Z,16.50
2023-04-09T17:15:26.539Z,18.70
2023-04-09T17:17:55.635Z,18.15
2023-04-09T17:20:25.139Z,18.35
2023-04-09T17:22:55.816Z,15.82
2023-04-09T17:25:24.898Z,17.05
2023-04-09T17:27:55.355Z,14.27
2023-04-09T17:30:24.448Z,14.70
2023-04-09T17:32:53.474Z,18.20
2023-04-09T17:35:22.674Z,15.55
2023-04-09T17:37:51.817Z,15.50
2023-04-09T17:40:23.483Z,15.98
2023-04-09T17:42:52.514Z,20.52
2023-04-09T17:45:21.828Z,19.25
2023-04-09T17:47:51.987Z,22.88
2023-04-09T17:50:21.162Z,18.30
2023-04-09T17:52:50.197Z,20.38
2023-04-09T17:55:19.427Z,18.25
2023-04-09T17:57:50.161Z,20.52
2023-04-09T18:00:19.662Z,16.35
2023-04-09T18:02:49.258Z,15.35
2023-04-09T18:05:18.671Z,21.33
2023-04-09T18:07:47.844Z,21.45
2023-04-09T18:10:16.944Z,23.40
2023-04-09T18:12:46.573Z,23.58
2023-04-09T18:15:19.424Z,17.48
2023-04-09T18:17:48.565Z,19.27
2023-04-09T18:20:17.644Z,20.73
2023-04-09T18:22:47.127Z,16.60
2023-04-09T18:25:16.635Z,23.25
2023-04-09T18:27:45.618Z,19.67
2023-04-09T18:30:16.533Z,23.45
2023-04-09T18:32:45.552Z,19.63
2023-04-09T18:35:14.823Z,17.63
2023-04-09T18:37:43.854Z,19.70
2023-04-09T18:40:16.214Z,18.48
2023-04-09T18:42:45.202Z,21.33
2023-04-09T18:45:14.244Z,16.55
2023-04-09T18:47:45.004Z,16.20
2023-04-09T18:50:19.461Z,16.15
2023-04-09T18:52:48.517Z,19.25
2023-04-09T18:55:18.958Z,20.48
2023-04-09T18:57:48.150Z,18.23
2023-04-09T19:00:17.353Z,19.58
2023-04-09T19:02:48.684Z,17.75
2023-04-09T19:05:18.432Z,19.00
2023-04-09T19:07:47.379Z,16.33
2023-04-09T19:10:16.408Z,17.45
2023-04-09T19:12:51.729Z,18.77
2023-04-09T19:15:20.842Z,19.05
2023-04-09T19:17:51.747Z,17.83
2023-04-09T19:20:21.090Z,17.95
2023-04-09T19:22:51.068Z,18.70
2023-04-09T19:25:20.467Z,18.63
2023-04-09T19:27:49.554Z,19.85
2023-04-09T19:30:18.561Z,19.42
2023-04-09T19:32:47.795Z,19.70
2023-04-09T19:35:18.492Z,19.80
2023-04-09T19:37:47.538Z,17.73
2023-04-09T19:40:18.748Z,19.10
2023-04-09T19:42:47.773Z,16.52
2023-04-09T19:45:16.896Z,17.77
2023-04-09T19:47:45.983Z,19.77
2023-04-09T19:50:15.247Z,16.40
2023-04-09T19:52:45.845Z,18.10
2023-04-09T19:55:14.964Z,15.98
2023-04-09T19:57:45.102Z,17.02
2023-04-09T20:00:18.233Z,17.98
2023-04-09T20:02:47.396Z,18.52
2023-04-09T20:05:16.695Z,18.27
2023-04-09T20:07:47.423Z,15.60
2023-04-09T20:10:17.155Z,15.30
2023-04-09T20:12:49.370Z,17.02
2023-04-09T20:15:20.905Z,19.40
2023-04-09T20:17:50.218Z,15.07
2023-04-09T20:20:20.716Z,15.88
2023-04-09T20:22:56.129Z,15.05
2023-04-09T20:25:26.413Z,16.85
2023-04-09T20:27:55.860Z,15.50
2023-04-09T20:30:24.912Z,14.82
2023-04-09T20:32:53.992Z,15.20
2023-04-09T20:35:23.010Z,17.13
2023-04-09T20:37:55.213Z,13.55
2023-04-09T20:40:25.106Z,14.68
2023-04-09T20:42:54.148Z,19.00
2023-04-09T20:45:23.212Z,19.98
2023-04-09T20:47:53.844Z,15.85
2023-04-09T20:50:22.983Z,12.55
2023-04-09T20:52:53.737Z,14.68
2023-04-09T20:55:23.105Z,12.02
2023-04-09T20:57:52.796Z,14.60
2023-04-09T21:00:21.765Z,13.27
2023-04-09T21:02:50.989Z,13.52
2023-04-09T21:05:24.004Z,12.73
2023-04-09T21:07:55.202Z,12.38
2023-04-09T21:10:24.268Z,9.98
2023-04-09T21:12:53.220Z,11.05
2023-04-09T21:15:22.209Z,11.05
2023-04-09T21:17:51.679Z,12.77
2023-04-09T21:20:20.965Z,12.18
2023-04-09T21:22:50.243Z,15.75
2023-04-09T21:25:21.033Z,10.35
2023-04-09T21:27:50.007Z,12.27
2023-04-09T21:30:18.987Z,13.38
2023-04-09T21:32:47.977Z,10.27
2023-04-09T21:35:16.986Z,10.73
2023-04-09T21:37:45.938Z,10.15
2023-04-09T21:40:16.076Z,11.32
2023-04-09T21:42:48.425Z,10.32
2023-04-09T21:45:17.767Z,10.70
2023-04-09T21:47:46.970Z,10.40
2023-04-09T21:50:16.099Z,10.48
2023-04-09T21:52:46.902Z,8.95
2023-04-09T21:55:16.225Z,10.15
2023-04-09T21:57:45.209Z,11.13
2023-04-09T22:00:17.445Z,10.52
2023-04-09T22:02:46.920Z,8.75
2023-04-09T22:05:16.474Z,10.48
2023-04-09T22:07:46.091Z,8.90
2023-04-09T22:10:15.113Z,11.35
2023-04-09T22:12:44.146Z,9.40
2023-04-09T22:15:15.482Z,13.65
2023-04-09T22:17:44.618Z,11.80
2023-04-09T22:20:13.749Z,11.02
2023-04-09T22:22:43.331Z,11.75
2023-04-09T22:25:13.109Z,15.32
2023-04-09T22:27:42.510Z,13.40
2023-04-09T22:30:11.973Z,11.70
2023-04-09T22:32:42.688Z,12.93
2023-04-09T22:35:15.820Z,15.52
2023-04-09T22:37:44.865Z,14.20
2023-04-09T22:40:15.632Z,12.85
2023-04-09T22:42:44.997Z,17.30
2023-04-09T22:45:14.589Z,16.88
2023-04-09T22:47:45.325Z,12.43
2023-04-09T22:50:14.852Z,13.20
2023-04-09T22:52:43.855Z,13.85
2023-04-09T22:55:14.473Z,13.40
2023-04-09T22:57:45.043Z,12.75
2023-04-09T23:00:15.285Z,14.38
2023-04-09T23:02:48.235Z,11.48
2023-04-09T23:05:18.408Z,13.02
2023-04-09T23:07:47.645Z,12.82
2023-04-09T23:10:18.237Z,14.23
2023-04-09T23:12:47.174Z,11.60
2023-04-09T23:15:16.639Z,12.57
2023-04-09T23:17:47.327Z,10.73
2023-04-09T23:20:16.503Z,11.93
2023-04-09T23:22:47.186Z,12.35
2023-04-09T23:25:16.373Z,12.00
2023-04-09T23:27:45.481Z,14.77
2023-04-09T23:30:17.834Z,11.88
2023-04-09T23:32:48.892Z,13.88
2023-04-09T23:35:18.128Z,12.95
2023-04-09T23:37:47.495Z,13.05
2023-04-09T23:40:18.749Z,13.63
2023-04-09T23:42:48.909Z,11.18
2023-04-09T23:45:17.975Z,13.00
2023-04-09T23:47:48.652Z,16.20
2023-04-09T23:50:18.512Z,12.50
2023-04-09T23:52:49.356Z,14.30
2023-04-09T23:55:18.538Z,12.65
2023-04-09T23:57:47.481Z,11.55
